createdAt,value
2018-03-07T00:00:28.829Z,41.58
2018-03-07T00:02:58.598Z,40.25
2018-03-07T00:05:28.403Z,40.85
2018-03-07T00:07:58.999Z,39.92
2018-03-07T00:10:28.778Z,41.42
2018-03-07T00:12:58.614Z,41.37
2018-03-07T00:15:28.622Z,41.70
2018-03-07T00:17:58.136Z,40.60
2018-03-07T00:20:27.906Z,42.45
2018-03-07T00:22:58.477Z,41.00
2018-03-07T00:25:28.247Z,39.90
2018-03-07T00:27:58.860Z,41.95
2018-03-07T00:30:29.421Z,43.30
2018-03-07T00:32:59.233Z,42.25
2018-03-07T00:35:29.008Z,41.08
2018-03-07T00:37:58.837Z,41.42
2018-03-07T00:40:29.398Z,41.55
2018-03-07T00:42:59.213Z,40.10
2018-03-07T00:45:28.994Z,43.33
2018-03-07T00:47:59.557Z,39.03
2018-03-07T00:50:29.374Z,42.72
2018-03-07T00:52:59.179Z,41.78
2018-03-07T00:55:28.956Z,41.08
2018-03-07T00:57:59.513Z,40.45
2018-03-07T01:00:29.453Z,42.62
2018-03-07T01:02:59.236Z,42.72
2018-03-07T01:05:29.068Z,43.80
2018-03-07T01:07:59.806Z,44.33
2018-03-07T01:10:29.721Z,43.92
2018-03-07T01:12:59.533Z,42.88
2018-03-07T01:15:29.350Z,44.92
2018-03-07T01:17:59.385Z,46.00
2018-03-07T01:20:29.230Z,44.97
2018-03-07T01:22:59.012Z,44.95
2018-03-07T01:25:29.332Z,44.47
2018-03-07T01:28:00.845Z,44.78
2018-03-07T01:30:31.383Z,45.83
2018-03-07T01:33:01.209Z,43.35
2018-03-07T01:35:31.023Z,46.03
2018-03-07T01:38:00.808Z,43.58
2018-03-07T01:40:30.631Z,42.53
2018-03-07T01:43:00.410Z,44.50
2018-03-07T01:45:30.223Z,45.65
2018-03-07T01:48:00.012Z,44.30
2018-03-07T01:50:30.331Z,45.25
2018-03-07T01:53:00.121Z,46.55
2018-03-07T01:55:29.937Z,44.25
2018-03-07T01:57:59.741Z,44.05
2018-03-07T02:00:29.553Z,45.12
2018-03-07T02:02:59.329Z,47.92
2018-03-07T02:05:29.146Z,43.85
2018-03-07T02:07:59.697Z,46.22
2018-03-07T02:10:29.526Z,45.35
2018-03-07T02:12:59.429Z,45.67
2018-03-07T02:15:29.247Z,45.30
2018-03-07T02:17:59.394Z,48.03
2018-03-07T02:20:29.183Z,46.78
2018-03-07T02:22:59.039Z,48.13
2018-03-07T02:25:28.863Z,50.58
2018-03-07T02:27:58.656Z,47.35
2018-03-07T02:30:28.590Z,46.50
2018-03-07T02:32:58.174Z,45.53
2018-03-07T02:35:27.963Z,46.92
2018-03-07T02:37:57.518Z,47.45
2018-03-07T02:40:28.060Z,46.85
2018-03-07T02:42:58.649Z,48.75
2018-03-07T02:45:28.452Z,49.22
2018-03-07T02:47:58.303Z,47.60
2018-03-07T02:50:27.756Z,48.00
2018-03-07T02:52:57.602Z,49.20
2018-03-07T02:55:27.386Z,47.40
2018-03-07T02:57:56.958Z,47.33
2018-03-07T03:00:26.748Z,48.22
2018-03-07T03:02:56.661Z,47.13
2018-03-07T03:05:26.454Z,47.45
2018-03-07T03:07:56.270Z,48.28
2018-03-07T03:10:26.588Z,47.33
2018-03-07T03:12:56.387Z,45.35
2018-03-07T03:15:26.213Z,47.50
2018-03-07T03:17:55.663Z,46.97
2018-03-07T03:20:26.250Z,47.15
2018-03-07T03:22:56.038Z,48.63
2018-03-07T03:25:25.881Z,45.90
2018-03-07T03:27:55.732Z,45.90
2018-03-07T03:30:26.339Z,45.53
2018-03-07T03:32:57.683Z,45.55
2018-03-07T03:35:27.506Z,43.70
2018-03-07T03:37:57.336Z,43.87
2018-03-07T03:40:27.900Z,45.35
2018-03-07T03:42:57.714Z,46.25
2018-03-07T03:45:27.544Z,44.72
2018-03-07T03:47:58.138Z,43.30
2018-03-07T03:50:28.714Z,45.85
2018-03-07T03:52:58.505Z,44.95
2018-03-07T03:55:28.404Z,44.20
2018-03-07T03:57:57.902Z,45.30
2018-03-07T04:00:27.722Z,45.22
2018-03-07T04:02:57.512Z,44.90
2018-03-07T04:05:28.123Z,42.72
2018-03-07T04:07:59.404Z,44.45
2018-03-07T04:10:29.232Z,42.83
2018-03-07T04:12:59.031Z,43.10
2018-03-07T04:15:28.849Z,44.53
2018-03-07T04:17:58.638Z,77.55
2018-03-07T04:20:29.240Z,48.38
2018-03-07T04:22:59.008Z,45.08
2018-03-07T04:25:29.035Z,43.38
2018-03-07T04:27:59.042Z,43.85
2018-03-07T04:30:28.813Z,42.62
2018-03-07T04:32:58.620Z,44.75
2018-03-07T04:35:28.422Z,45.53
2018-03-07T04:37:58.213Z,44.20
2018-03-07T04:40:28.027Z,45.15
2018-03-07T04:42:57.810Z,45.85
2018-03-07T04:45:27.618Z,44.25
2018-03-07T04:47:57.385Z,45.10
2018-03-07T04:50:27.166Z,43.20
2018-03-07T04:52:57.005Z,43.90
2018-03-07T04:55:26.781Z,44.50
2018-03-07T04:57:56.693Z,45.22
2018-03-07T05:00:26.530Z,42.60
2018-03-07T05:02:56.377Z,43.35
2018-03-07T05:05:26.174Z,43.28
2018-03-07T05:07:56.030Z,47.40
2018-03-07T05:10:26.592Z,45.22
2018-03-07T05:12:56.456Z,45.17
2018-03-07T05:15:27.005Z,94.15
2018-03-07T05:17:56.816Z,63.53
2018-03-07T05:20:26.598Z,46.65
2018-03-07T05:22:56.144Z,44.58
2018-03-07T05:25:25.934Z,47.42
2018-03-07T05:27:56.541Z,48.72
2018-03-07T05:30:26.401Z,50.85
2018-03-07T05:32:56.200Z,48.03
2018-03-07T05:35:26.769Z,46.85
2018-03-07T05:37:56.550Z,47.03
2018-03-07T05:40:26.400Z,43.63
2018-03-07T05:42:56.219Z,46.25
2018-03-07T05:45:26.213Z,48.45
2018-03-07T05:47:56.017Z,46.28
2018-03-07T05:50:25.821Z,46.08
2018-03-07T05:52:55.659Z,45.53
2018-03-07T05:55:25.449Z,44.40
2018-03-07T05:57:55.254Z,47.42
2018-03-07T06:00:25.038Z,47.45
2018-03-07T06:02:54.854Z,46.95
2018-03-07T06:05:25.538Z,46.25
2018-03-07T06:07:55.330Z,45.95
2018-03-07T06:10:25.161Z,45.83
2018-03-07T06:12:54.938Z,49.25
2018-03-07T06:15:25.571Z,46.30
2018-03-07T06:17:55.997Z,48.35
2018-03-07T06:20:26.539Z,62.08
2018-03-07T06:22:56.576Z,55.92
2018-03-07T06:25:26.435Z,48.72
2018-03-07T06:27:56.242Z,47.10
2018-03-07T06:30:26.080Z,49.33
2018-03-07T06:32:56.643Z,46.78
2018-03-07T06:35:26.456Z,46.35
2018-03-07T06:37:56.300Z,46.25
2018-03-07T06:40:26.109Z,47.85
2018-03-07T06:42:56.062Z,46.78
2018-03-07T06:45:26.838Z,45.42
2018-03-07T06:47:56.696Z,43.65
2018-03-07T06:50:26.499Z,45.47
2018-03-07T06:52:56.810Z,46.15
2018-03-07T06:55:26.643Z,46.88
2018-03-07T06:57:56.622Z,46.78
2018-03-07T07:00:26.450Z,46.97
2018-03-07T07:02:56.443Z,50.20
2018-03-07T07:05:26.291Z,49.97
2018-03-07T07:07:56.302Z,51.40
2018-03-07T07:10:26.070Z,50.25
2018-03-07T07:12:56.169Z,48.22
2018-03-07T07:15:26.757Z,49.25
2018-03-07T07:17:56.524Z,51.78
2018-03-07T07:20:26.460Z,49.53
2018-03-07T07:22:56.282Z,48.75
2018-03-07T07:25:26.149Z,50.28
2018-03-07T07:27:55.932Z,49.55
2018-03-07T07:30:26.018Z,51.72
2018-03-07T07:32:55.947Z,51.75
2018-03-07T07:35:25.716Z,52.58
2018-03-07T07:37:56.279Z,51.13
2018-03-07T07:40:26.068Z,49.05
2018-03-07T07:42:55.902Z,49.45
2018-03-07T07:45:25.682Z,45.70
2018-03-07T07:47:56.280Z,46.35
2018-03-07T07:50:25.879Z,45.67
2018-03-07T07:52:56.508Z,47.65
2018-03-07T07:55:25.973Z,46.85
2018-03-07T07:57:55.792Z,47.70
2018-03-07T08:00:25.645Z,47.88
2018-03-07T08:02:55.430Z,45.58
2018-03-07T08:05:25.244Z,45.25
2018-03-07T08:07:55.045Z,50.10
2018-03-07T08:10:24.865Z,45.83
2018-03-07T08:12:54.636Z,45.97
2018-03-07T08:15:24.882Z,47.65
2018-03-07T08:17:54.673Z,50.12
2018-03-07T08:20:25.270Z,48.10
2018-03-07T08:22:55.039Z,47.35
2018-03-07T08:25:24.971Z,46.90
2018-03-07T08:27:54.795Z,48.17
2018-03-07T08:30:24.699Z,48.55
2018-03-07T08:32:54.529Z,48.13
2018-03-07T08:35:24.352Z,46.22
2018-03-07T08:37:54.126Z,45.47
2018-03-07T08:40:23.948Z,45.92
2018-03-07T08:42:54.001Z,43.90
2018-03-07T08:45:23.775Z,45.12
2018-03-07T08:47:53.603Z,45.63
2018-03-07T08:50:23.415Z,44.58
2018-03-07T08:52:53.191Z,43.00
2018-03-07T08:55:23.774Z,43.92
2018-03-07T08:57:53.548Z,42.38
2018-03-07T09:00:23.349Z,43.05
2018-03-07T09:02:53.918Z,42.15
2018-03-07T09:05:23.699Z,42.13
2018-03-07T09:07:53.232Z,42.65
2018-03-07T09:10:23.000Z,38.42
2018-03-07T09:12:53.577Z,39.42
2018-03-07T09:15:23.392Z,39.20
2018-03-07T09:17:53.184Z,40.20
2018-03-07T09:20:23.014Z,40.12
2018-03-07T09:22:52.786Z,38.85
2018-03-07T09:25:23.348Z,38.60
2018-03-07T09:27:53.161Z,38.10
2018-03-07T09:30:22.973Z,35.20
2018-03-07T09:32:52.741Z,36.40
2018-03-07T09:35:22.773Z,37.85
2018-03-07T09:37:53.422Z,36.92
2018-03-07T09:40:23.228Z,34.92
2018-03-07T09:42:53.030Z,34.20
2018-03-07T09:45:23.609Z,35.40
2018-03-07T09:47:53.378Z,35.95
2018-03-07T09:50:23.941Z,36.03
2018-03-07T09:52:53.708Z,36.13
2018-03-07T09:55:23.508Z,36.05
2018-03-07T09:57:53.091Z,32.95
2018-03-07T10:00:22.893Z,33.95
2018-03-07T10:02:52.733Z,34.83
2018-03-07T10:05:22.510Z,33.63
2018-03-07T10:07:52.306Z,33.30
2018-03-07T10:10:22.110Z,32.67
2018-03-07T10:12:52.682Z,32.55
2018-03-07T10:15:22.442Z,30.42
2018-03-07T10:17:53.029Z,30.45
2018-03-07T10:20:22.841Z,30.85
2018-03-07T10:22:52.698Z,30.35
2018-03-07T10:25:22.670Z,31.73
2018-03-07T10:27:52.437Z,28.50
2018-03-07T10:30:23.013Z,31.67
2018-03-07T10:32:52.787Z,28.00
2018-03-07T10:35:22.757Z,26.17
2018-03-07T10:37:52.520Z,27.30
2018-03-07T10:40:22.340Z,27.87
2018-03-07T10:42:52.106Z,26.90
2018-03-07T10:45:21.913Z,25.80
2018-03-07T10:47:51.707Z,26.00
2018-03-07T10:50:21.482Z,26.80
2018-03-07T10:52:51.266Z,26.50
2018-03-07T10:55:21.810Z,28.17
2018-03-07T10:57:52.380Z,26.25
2018-03-07T11:00:27.673Z,26.50
2018-03-07T11:02:58.241Z,22.10
2018-03-07T11:05:28.018Z,25.12
2018-03-07T11:07:57.850Z,23.55
2018-03-07T11:10:27.638Z,24.77
2018-03-07T11:12:58.204Z,21.62
2018-03-07T11:15:27.973Z,23.73
2018-03-07T11:17:57.811Z,26.40
2018-03-07T11:20:27.579Z,24.12
2018-03-07T11:22:57.378Z,22.95
2018-03-07T11:25:27.182Z,22.40
2018-03-07T11:27:56.953Z,23.20
2018-03-07T11:30:27.520Z,23.95
2018-03-07T11:32:57.291Z,22.25
2018-03-07T11:35:27.402Z,23.17
2018-03-07T11:37:57.972Z,22.33
2018-03-07T11:40:27.808Z,21.48
2018-03-07T11:42:57.569Z,24.10
2018-03-07T11:45:27.377Z,24.98
2018-03-07T11:47:58.316Z,22.60
2018-03-07T11:50:28.887Z,23.83
2018-03-07T11:52:58.637Z,23.17
2018-03-07T11:55:29.421Z,24.02
2018-03-07T11:57:59.184Z,25.30
2018-03-07T12:00:28.965Z,25.00
2018-03-07T12:02:58.791Z,23.60
2018-03-07T12:05:28.561Z,24.65
2018-03-07T12:07:58.380Z,25.10
2018-03-07T12:10:28.154Z,22.92
2018-03-07T12:12:57.969Z,24.25
2018-03-07T12:15:28.626Z,24.27
2018-03-07T12:17:58.410Z,24.20
2018-03-07T12:20:28.286Z,25.55
2018-03-07T12:22:58.061Z,25.05
2018-03-07T12:25:27.854Z,24.55
2018-03-07T12:27:58.418Z,24.80
2018-03-07T12:30:28.219Z,24.67
2018-03-07T12:32:57.990Z,24.67
2018-03-07T12:35:28.197Z,24.45
2018-03-07T12:37:58.011Z,28.42
2018-03-07T12:40:27.777Z,24.77
2018-03-07T12:42:57.568Z,26.17
2018-03-07T12:45:28.130Z,24.48
2018-03-07T12:47:57.633Z,27.87
2018-03-07T12:50:27.448Z,28.33
2018-03-07T12:52:57.270Z,28.92
2018-03-07T12:55:27.070Z,31.33
2018-03-07T12:57:56.870Z,28.52
2018-03-07T13:00:26.645Z,31.42
2018-03-07T13:02:56.438Z,32.42
2018-03-07T13:05:26.194Z,32.60
2018-03-07T13:07:56.774Z,38.00
2018-03-07T13:10:26.591Z,39.15
2018-03-07T13:12:56.409Z,33.67
2018-03-07T13:15:26.177Z,32.83
2018-03-07T13:17:56.005Z,36.90
2018-03-07T13:20:25.816Z,35.28
2018-03-07T13:22:55.581Z,32.17
2018-03-07T13:25:26.148Z,36.50
2018-03-07T13:27:55.915Z,37.65
2018-03-07T13:30:26.530Z,36.72
2018-03-07T13:32:56.325Z,37.47
2018-03-07T13:35:26.113Z,37.17
2018-03-07T13:37:55.902Z,37.53
2018-03-07T13:40:26.585Z,33.83
2018-03-07T13:42:56.401Z,39.35
2018-03-07T13:45:26.314Z,40.00
2018-03-07T13:47:56.132Z,34.03
2018-03-07T13:50:25.943Z,38.83
2018-03-07T13:52:55.843Z,27.20
2018-03-07T13:55:25.839Z,34.45
2018-03-07T13:57:55.697Z,35.88
2018-03-07T14:00:25.477Z,38.30
2018-03-07T14:02:55.309Z,36.95
2018-03-07T14:05:25.163Z,39.03
2018-03-07T14:07:55.203Z,38.60
2018-03-07T14:10:25.787Z,38.45
2018-03-07T14:12:55.584Z,36.55
2018-03-07T14:15:25.391Z,36.15
2018-03-07T14:17:55.228Z,38.47
2018-03-07T14:20:25.061Z,37.70
2018-03-07T14:22:54.948Z,36.00
2018-03-07T14:25:24.842Z,35.17
2018-03-07T14:27:54.689Z,36.92
2018-03-07T14:30:24.493Z,35.28
2018-03-07T14:32:54.334Z,27.87
2018-03-07T14:35:24.941Z,33.95
2018-03-07T14:37:54.714Z,34.33
2018-03-07T14:40:24.525Z,35.97
2018-03-07T14:42:54.298Z,31.90
2018-03-07T14:45:24.116Z,31.23
2018-03-07T14:47:54.664Z,33.30
2018-03-07T14:50:25.221Z,35.08
2018-03-07T14:52:54.873Z,35.03
2018-03-07T14:55:24.653Z,36.97
2018-03-07T14:57:54.467Z,37.65
2018-03-07T15:00:24.235Z,36.22
2018-03-07T15:02:55.029Z,38.22
2018-03-07T15:05:24.819Z,33.88
2018-03-07T15:07:54.629Z,29.85
2018-03-07T15:10:24.713Z,35.00
2018-03-07T15:12:54.705Z,34.05
2018-03-07T15:15:24.533Z,38.53
2018-03-07T15:17:54.310Z,37.80
2018-03-07T15:20:24.117Z,38.05
2018-03-07T15:22:53.759Z,32.22
2018-03-07T15:25:24.338Z,35.05
2018-03-07T15:27:54.134Z,30.42
2018-03-07T15:30:23.915Z,36.70
2018-03-07T15:32:53.729Z,33.40
2018-03-07T15:35:23.511Z,39.15
2018-03-07T15:37:53.308Z,38.83
2018-03-07T15:40:23.073Z,33.22
2018-03-07T15:42:53.702Z,36.92
2018-03-07T15:45:23.468Z,35.63
2018-03-07T15:47:53.274Z,33.40
2018-03-07T15:50:23.066Z,33.38
2018-03-07T15:52:52.870Z,33.13
2018-03-07T15:55:23.425Z,34.38
2018-03-07T15:57:53.254Z,34.97
2018-03-07T16:00:23.061Z,38.20
2018-03-07T16:02:53.059Z,36.60
2018-03-07T16:05:22.843Z,36.00
2018-03-07T16:07:53.498Z,36.95
2018-03-07T16:10:23.533Z,35.45
2018-03-07T16:12:53.525Z,37.83
2018-03-07T16:15:23.308Z,34.70
2018-03-07T16:17:53.612Z,33.38
2018-03-07T16:20:23.417Z,34.65
2018-03-07T16:22:53.230Z,33.13
2018-03-07T16:25:23.033Z,31.67
2018-03-07T16:27:52.929Z,29.17
2018-03-07T16:30:22.699Z,32.72
2018-03-07T16:32:53.476Z,30.15
2018-03-07T16:35:24.062Z,26.98
2018-03-07T16:37:54.146Z,32.72
2018-03-07T16:40:24.031Z,31.42
2018-03-07T16:42:53.839Z,33.85
2018-03-07T16:45:24.381Z,33.30
2018-03-07T16:47:54.179Z,35.05
2018-03-07T16:50:26.018Z,35.17
2018-03-07T16:52:56.795Z,35.08
2018-03-07T16:55:27.829Z,37.58
2018-03-07T16:57:58.803Z,40.92
2018-03-07T17:00:29.306Z,39.83
2018-03-07T17:02:59.126Z,38.03
2018-03-07T17:05:28.665Z,30.60
2018-03-07T17:07:58.480Z,37.03
2018-03-07T17:10:28.341Z,37.17
2018-03-07T17:12:58.202Z,82.60
2018-03-07T17:15:28.044Z,37.88
2018-03-07T17:17:58.593Z,37.65
2018-03-07T17:20:28.458Z,37.45
2018-03-07T17:22:58.608Z,40.33
2018-03-07T17:25:29.120Z,40.60
2018-03-07T17:27:58.952Z,39.05
2018-03-07T17:30:28.772Z,39.25
2018-03-07T17:32:59.361Z,42.13
2018-03-07T17:35:29.163Z,38.95
2018-03-07T17:37:59.213Z,40.42
2018-03-07T17:40:29.682Z,40.85
2018-03-07T17:42:59.515Z,47.58
2018-03-07T17:45:29.723Z,39.45
2018-03-07T17:47:59.546Z,38.13
2018-03-07T17:50:29.339Z,43.42
2018-03-07T17:53:00.605Z,29.00
2018-03-07T17:55:31.411Z,41.53
2018-03-07T17:58:01.395Z,40.00
2018-03-07T18:00:31.222Z,45.10
2018-03-07T18:03:01.839Z,39.10
2018-03-07T18:05:31.876Z,41.50
2018-03-07T18:08:01.435Z,41.08
2018-03-07T18:10:31.645Z,41.95
2018-03-07T18:13:01.833Z,39.55
2018-03-07T18:15:32.402Z,43.90
2018-03-07T18:18:02.329Z,39.00
2018-03-07T18:20:32.155Z,38.05
2018-03-07T18:23:01.925Z,39.10
2018-03-07T18:25:31.725Z,35.15
2018-03-07T18:28:02.279Z,39.45
2018-03-07T18:30:32.125Z,40.15
2018-03-07T18:33:01.954Z,98.57
2018-03-07T18:35:34.044Z,41.45
2018-03-07T18:38:03.889Z,39.13
2018-03-07T18:40:33.704Z,38.83
2018-03-07T18:43:03.596Z,38.60
2018-03-07T18:45:34.146Z,36.67
2018-03-07T18:48:03.964Z,38.72
2018-03-07T18:50:33.754Z,40.33
2018-03-07T18:53:03.593Z,39.60
2018-03-07T18:55:33.384Z,37.78
2018-03-07T18:58:03.210Z,39.35
2018-03-07T19:00:33.217Z,39.20
2018-03-07T19:03:03.044Z,34.42
2018-03-07T19:05:35.803Z,32.35
2018-03-07T19:08:06.554Z,30.67
2018-03-07T19:10:36.328Z,36.70
2018-03-07T19:13:06.129Z,38.78
2018-03-07T19:15:35.918Z,37.90
2018-03-07T19:18:05.447Z,35.40
2018-03-07T19:20:35.318Z,37.47
2018-03-07T19:23:05.169Z,37.95
2018-03-07T19:25:35.045Z,33.33
2018-03-07T19:28:04.844Z,38.13
2018-03-07T19:30:34.408Z,38.50
2018-03-07T19:33:04.189Z,38.55
2018-03-07T19:35:34.018Z,37.95
2018-03-07T19:38:03.940Z,37.28
2018-03-07T19:40:33.950Z,40.50
2018-03-07T19:43:03.824Z,39.97
2018-03-07T19:45:33.671Z,42.60
2018-03-07T19:48:03.460Z,41.17
2018-03-07T19:50:33.326Z,43.25
2018-03-07T19:53:03.163Z,42.83
2018-03-07T19:55:33.719Z,37.88
2018-03-07T19:58:03.539Z,43.67
2018-03-07T20:00:33.348Z,46.42
2018-03-07T20:03:03.430Z,44.47
2018-03-07T20:05:34.076Z,40.83
2018-03-07T20:08:04.927Z,45.53
2018-03-07T20:10:34.773Z,47.38
2018-03-07T20:13:04.333Z,48.35
2018-03-07T20:15:34.175Z,44.25
2018-03-07T20:18:04.062Z,44.00
2018-03-07T20:20:33.898Z,45.92
2018-03-07T20:23:03.697Z,46.08
2018-03-07T20:25:33.848Z,37.83
2018-03-07T20:28:04.455Z,35.90
2018-03-07T20:30:34.395Z,42.62
2018-03-07T20:33:04.250Z,46.70
2018-03-07T20:35:34.829Z,46.30
2018-03-07T20:38:04.822Z,38.33
2018-03-07T20:40:34.597Z,40.20
2018-03-07T20:43:04.416Z,40.97
2018-03-07T20:45:34.961Z,45.38
2018-03-07T20:48:04.450Z,43.05
2018-03-07T20:50:34.258Z,33.47
2018-03-07T20:53:04.088Z,40.80
2018-03-07T20:55:34.743Z,43.08
2018-03-07T20:58:04.546Z,43.63
2018-03-07T21:00:34.396Z,41.72
2018-03-07T21:03:04.206Z,44.85
2018-03-07T21:05:34.014Z,44.33
2018-03-07T21:08:03.824Z,46.70
2018-03-07T21:10:33.634Z,44.55
2018-03-07T21:13:03.423Z,45.78
2018-03-07T21:15:33.255Z,48.17
2018-03-07T21:18:03.053Z,47.20
2018-03-07T21:20:32.882Z,47.33
2018-03-07T21:23:02.693Z,45.63
2018-03-07T21:25:32.526Z,43.45
2018-03-07T21:28:02.317Z,44.45
2018-03-07T21:30:32.143Z,47.90
2018-03-07T21:33:01.947Z,47.33
2018-03-07T21:35:31.782Z,46.72
2018-03-07T21:38:01.580Z,47.20
2018-03-07T21:40:31.384Z,42.72
2018-03-07T21:43:01.181Z,48.42
2018-03-07T21:45:31.407Z,48.75
2018-03-07T21:48:01.229Z,49.47
2018-03-07T21:50:31.052Z,51.53
2018-03-07T21:53:00.878Z,50.15
2018-03-07T21:55:30.725Z,49.88
2018-03-07T21:58:01.398Z,49.10
2018-03-07T22:00:31.167Z,51.97
2018-03-07T22:03:00.990Z,50.60
2018-03-07T22:05:30.574Z,52.83
2018-03-07T22:08:01.177Z,50.33
2018-03-07T22:10:30.987Z,51.88
2018-03-07T22:13:00.809Z,48.75
2018-03-07T22:15:30.617Z,53.08
2018-03-07T22:18:00.392Z,52.42
2018-03-07T22:20:30.961Z,55.67
2018-03-07T22:23:00.793Z,51.45
2018-03-07T22:25:30.566Z,54.08
2018-03-07T22:28:01.110Z,52.70
2018-03-07T22:30:30.722Z,51.47
2018-03-07T22:33:00.746Z,52.33
2018-03-07T22:35:31.589Z,52.42
2018-03-07T22:38:01.407Z,55.05
2018-03-07T22:40:31.242Z,53.90
2018-03-07T22:43:01.102Z,53.92
2018-03-07T22:45:31.011Z,52.75
2018-03-07T22:48:00.807Z,53.85
2018-03-07T22:50:31.409Z,53.85
2018-03-07T22:53:01.299Z,53.35
2018-03-07T22:55:31.077Z,56.60
2018-03-07T22:58:00.901Z,54.58
2018-03-07T23:00:36.440Z,56.33
2018-03-07T23:03:05.973Z,57.22
2018-03-07T23:05:35.769Z,53.45
2018-03-07T23:08:05.596Z,56.60
2018-03-07T23:10:35.396Z,56.67
2018-03-07T23:13:05.244Z,57.85
2018-03-07T23:15:35.010Z,54.20
2018-03-07T23:18:04.819Z,59.72
2018-03-07T23:20:34.590Z,58.83
2018-03-07T23:23:04.418Z,57.55
2018-03-07T23:25:34.986Z,57.20
2018-03-07T23:28:04.466Z,58.58
2018-03-07T23:30:35.039Z,55.72
2018-03-07T23:33:04.805Z,57.00
2018-03-07T23:35:34.360Z,57.80
2018-03-07T23:38:04.133Z,59.00
2018-03-07T23:40:33.973Z,58.05
2018-03-07T23:43:03.947Z,55.20
2018-03-07T23:45:34.557Z,57.25
2018-03-07T23:48:04.393Z,58.05
2018-03-07T23:50:34.386Z,54.65
2018-03-07T23:53:04.154Z,54.75
2018-03-07T23:55:33.962Z,56.17
2018-03-07T23:58:03.728Z,54.67
